Terminal Aerodrome Forecast
Issued by NWS Cleveland, OH

Home | Current Version | Previous Version | Graphics & Text | Print | Product List | Glossary On
Versions: 1 2 3 4 5 6 7 8 9 10 11 12 13 14 15 16 17
000
FTUS41 KCLE 232300
TAFYNG
TAF
KYNG 232339Z 2400/2424 31010KT P6SM OVC022
     FM241000 35008KT P6SM SCT025
     FM241500 01008KT P6SM BKN030
     FM241700 34007KT P6SM SCT030=

USA.gov is the U.S. government's official web portal to all federal, state and local government web resources and services.